Terminal Aerodrome Forecast
Issued by NWS

Home | Current Version | Previous Version | Text Only | Print | Product List | Glossary On
Versions: 1 2 3 4 5 6 7 8 9 10 11 12 13 14 15 16 17 18 19
000
FTUS46 KPDT 241700
TAFRDM
TAF
KRDM 241726Z 2418/2518 21015G25KT P6SM BKN050
      TEMPO 2418/2422 -RA BKN030 BKN050
     FM242200 28022G32KT P6SM VCSH BKN050
      TEMPO 2422/2502 -RA BKN030 BKN050
     FM250400 30010KT P6SM VCSH BKN050 OVC100
     FM250600 17007KT P6SM VCSH BKN050 OVC070=

USA.gov is the U.S. government's official web portal to all federal, state and local government web resources and services.